Time;durP1;ratioP1;P1;durP2;ratioP2;P2;SDS_P1;SDS_P2;PMS_P1;PMS_P2;Temp;Humidity;BMP_temperature;BMP_pressure;BME280_temperature;BME280_humidity;BME280_pressure;Samples;Min_cycle;Max_cycle;Signal;HPM_P1;HPM_P2
2023/10/12 00:00:33;;;;;;;3.60;2.00;;;;;;;10.51;100.00;102341.47;2053889;28;20454;-64
2023/10/12 00:01:34;;;;;;;4.13;2.07;;;;;;;10.15;100.00;102287.88;2053399;28;20476;-65
2023/10/12 00:02:34;;;;;;;3.17;1.90;;;;;;;10.52;100.00;102343.88;2053936;28;20434;-64
2023/10/12 00:03:35;;;;;;;3.87;2.23;;;;;;;10.52;100.00;102345.84;2053703;28;20209;-64
2023/10/12 00:04:53;;;;;;;5.30;2.43;;;;;;;10.40;100.00;102335.88;2053172;28;20179;-64
2023/10/12 00:05:55;;;;;;;3.47;2.17;;;;;;;10.45;100.00;102340.28;2053878;28;20156;-64
2023/10/12 00:06:58;;;;;;;4.10;2.10;;;;;;;10.47;100.00;102347.03;2053903;28;20429;-64
2023/10/12 00:08:01;;;;;;;4.43;2.00;;;;;;;10.45;100.00;102340.28;2054830;28;20425;-64
2023/10/12 00:09:09;;;;;;;3.30;2.03;;;;;;;10.40;100.00;102338.66;2047336;29;20415;-64
2023/10/12 00:11:20;;;;;;;4.87;1.77;;;;;;;10.44;100.00;102339.47;2052621;28;20442;-65
2023/10/12 00:12:24;;;;;;;4.30;2.40;;;;;;;10.09;100.00;102278.34;2054045;28;20438;-64
2023/10/12 00:13:28;;;;;;;4.43;2.07;;;;;;;10.48;100.00;102333.94;2053960;28;20740;-65
2023/10/12 00:14:32;;;;;;;5.63;2.03;;;;;;;10.51;100.00;102333.16;2053527;28;20446;-64
2023/10/12 00:15:38;;;;;;;3.87;2.20;;;;;;;10.49;100.00;102341.88;2053385;28;20446;-64
2023/10/12 00:16:42;;;;;;;5.10;2.17;;;;;;;10.45;100.00;102332.75;2052391;28;20446;-65
2023/10/12 00:17:43;;;;;;;2.40;1.80;;;;;;;10.47;100.00;102332.34;2053556;28;20513;-65
2023/10/12 00:18:45;;;;;;;4.50;1.70;;;;;;;10.48;100.00;102331.16;2053940;28;20951;-65
2023/10/12 00:19:46;;;;;;;3.67;1.73;;;;;;;10.49;100.00;102330.78;2053488;28;20183;-65
2023/10/12 00:20:52;;;;;;;2.60;1.80;;;;;;;10.31;100.00;102310.50;2056195;28;20504;-64
2023/10/12 00:22:00;;;;;;;3.90;2.13;;;;;;;10.45;100.00;102338.28;2053560;28;20422;-64
2023/10/12 00:23:09;;;;;;;5.27;1.93;;;;;;;10.46;100.00;102330.78;2053847;28;20406;-64
2023/10/12 00:24:15;;;;;;;4.30;2.27;;;;;;;10.49;100.00;102332.75;2053542;28;20398;-64
2023/10/12 00:25:16;;;;;;;5.30;1.80;;;;;;;10.49;100.00;102328.00;2052901;28;20413;-64
2023/10/12 00:26:17;;;;;;;4.83;2.10;;;;;;;10.47;100.00;102330.38;2054836;28;20601;-64
2023/10/12 00:27:20;;;;;;;2.40;1.70;;;;;;;10.48;100.00;102331.16;2053611;28;20355;-64
2023/10/12 00:28:22;;;;;;;5.93;1.90;;;;;;;10.49;100.00;102328.00;2054093;28;20449;-64
2023/10/12 00:29:23;;;;;;;3.80;1.73;;;;;;;10.49;100.00;102328.00;2053578;28;20475;-64
2023/10/12 00:30:23;;;;;;;3.60;1.87;;;;;;;10.49;100.00;102330.78;2053728;28;20952;-64
2023/10/12 00:31:25;;;;;;;2.57;1.60;;;;;;;10.49;100.00;102328.00;2052963;28;20657;-64
2023/10/12 00:32:26;;;;;;;2.57;1.50;;;;;;;10.50;100.00;102328.81;2054842;28;20692;-65
2023/10/12 00:33:26;;;;;;;3.23;1.60;;;;;;;10.33;100.00;102308.16;2053609;28;20944;-65
2023/10/12 00:34:27;;;;;;;4.23;1.90;;;;;;;10.53;100.00;102326.06;2054439;28;20721;-64
2023/10/12 00:35:28;;;;;;;5.53;2.37;;;;;;;10.18;100.00;102270.50;2052458;28;20716;-64
2023/10/12 00:36:28;;;;;;;4.50;2.10;;;;;;;10.56;100.00;102327.25;2054289;28;20872;-64
2023/10/12 00:37:32;;;;;;;5.17;1.87;;;;;;;10.57;100.00;102335.19;2053471;28;20719;-64
2023/10/12 00:38:32;;;;;;;3.83;1.83;;;;;;;10.59;100.00;102323.66;2053413;28;20194;-64
2023/10/12 00:40:23;;;;;;;3.27;1.63;;;;;;;10.59;100.00;102329.22;2052829;28;20450;-64
2023/10/12 00:41:03;;;;;;;2.87;1.83;;;;;;;10.26;100.00;102280.41;2042170;28;20219;-64
2023/10/12 00:42:03;;;;;;;4.37;2.30;;;;;;;10.57;100.00;102323.28;2052840;28;20445;-64
2023/10/12 00:43:04;;;;;;;3.53;1.90;;;;;;;10.57;100.00;102320.50;2058050;28;20488;-64
2023/10/12 00:44:12;;;;;;;3.17;1.80;;;;;;;9.88;100.00;102211.78;2056045;28;20206;-64
2023/10/12 00:45:19;;;;;;;3.53;2.03;;;;;;;10.32;100.00;102284.41;2052910;28;20614;-64
2023/10/12 00:47:43;;;;;;;5.07;2.30;;;;;;;10.57;100.00;102313.00;2053767;28;20552;-64
2023/10/12 00:48:48;;;;;;;5.70;2.07;;;;;;;10.57;100.00;102315.78;2053685;28;20962;-64
2023/10/12 00:49:49;;;;;;;6.73;2.27;;;;;;;10.14;100.00;102260.59;2053631;28;20593;-64
2023/10/12 00:50:50;;;;;;;4.80;2.23;;;;;;;10.55;100.00;102311.81;2053390;28;20454;-64
2023/10/12 00:51:53;;;;;;;4.17;1.83;;;;;;;10.53;100.00;102314.97;2055900;28;20537;-64
2023/10/12 00:53:58;;;;;;;3.60;2.00;;;;;;;10.32;100.00;102291.91;2053367;28;20505;-64
2023/10/12 00:55:13;;;;;;;7.03;2.23;;;;;;;10.44;100.00;102314.53;2053506;28;20178;-64
2023/10/12 00:56:14;;;;;;;3.40;1.97;;;;;;;10.35;100.00;102311.31;2055010;28;20427;-64
2023/10/12 00:57:16;;;;;;;4.37;1.90;;;;;;;10.36;100.00;102320.44;2052778;28;20462;-64
2023/10/12 00:58:17;;;;;;;6.20;1.80;;;;;;;10.15;100.00;102279.56;2054037;28;20618;-64
2023/10/12 00:59:21;;;;;;;4.47;2.10;;;;;;;10.35;100.00;102313.31;2052976;28;20446;-64
2023/10/12 01:00:21;;;;;;;2.87;1.43;;;;;;;10.09;100.00;102275.59;2052938;28;21043;-64
2023/10/12 01:01:23;;;;;;;3.93;1.73;;;;;;;9.99;100.00;102272.75;2052237;28;20824;-64
2023/10/12 01:02:31;;;;;;;2.60;1.70;;;;;;;10.31;100.00;102304.97;2053194;28;20278;-64
2023/10/12 01:03:35;;;;;;;8.07;1.77;;;;;;;10.33;100.00;102310.13;2054498;28;20454;-64
2023/10/12 01:04:41;;;;;;;2.43;1.70;;;;;;;10.33;100.00;102308.16;2054244;28;20442;-65
2023/10/12 01:05:42;;;;;;;3.33;1.53;;;;;;;10.35;100.00;102307.78;2053976;28;20806;-64
2023/10/12 01:06:47;;;;;;;2.27;1.20;;;;;;;10.37;100.00;102311.75;2054258;28;20932;-64
2023/10/12 01:07:48;;;;;;;3.00;1.60;;;;;;;10.11;100.00;102264.94;2059902;28;20512;-64
2023/10/12 01:08:49;;;;;;;2.53;1.53;;;;;;;10.34;100.00;102301.44;2053378;28;20421;-64
2023/10/12 01:09:54;;;;;;;8.80;1.70;;;;;;;10.35;100.00;102305.00;2054321;28;20186;-64
2023/10/12 01:10:57;;;;;;;2.67;1.47;;;;;;;10.35;100.00;102300.22;2053867;28;20466;-64
2023/10/12 01:11:58;;;;;;;2.63;1.60;;;;;;;10.36;100.00;102306.59;2056076;28;20637;-64
2023/10/12 01:13:02;;;;;;;2.63;1.60;;;;;;;10.35;100.00;102305.78;2054851;28;20450;-64
2023/10/12 01:15:08;;;;;;;3.87;1.40;;;;;;;9.93;100.00;102247.41;2053093;28;20453;-64
2023/10/12 01:16:20;;;;;;;4.10;1.80;;;;;;;10.35;100.00;102311.31;2053505;28;20294;-64
2023/10/12 01:17:25;;;;;;;3.30;1.63;;;;;;;10.35;100.00;102311.31;2053940;28;20477;-64
2023/10/12 01:18:28;;;;;;;2.60;1.43;;;;;;;10.33;100.00;102308.16;2054295;28;20450;-64
2023/10/12 01:19:33;;;;;;;3.50;1.73;;;;;;;10.34;100.00;102306.16;2053287;28;20443;-64
2023/10/12 01:20:39;;;;;;;2.27;1.40;;;;;;;10.34;100.00;102303.38;2053510;28;20445;-64
2023/10/12 01:21:42;;;;;;;7.37;1.70;;;;;;;10.23;100.00;102299.78;2053226;28;20411;-64
2023/10/12 01:22:42;;;;;;;3.90;1.67;;;;;;;10.30;100.00;102303.38;2047409;28;20515;-64
2023/10/12 01:23:50;;;;;;;3.30;1.40;;;;;;;10.33;100.00;102305.38;2053153;28;20437;-64
2023/10/12 01:25:52;;;;;;;6.27;1.70;;;;;;;10.34;100.00;102311.69;2054314;28;20423;-64
2023/10/12 01:26:53;;;;;;;6.90;1.67;;;;;;;10.35;100.00;102305.00;2053236;28;20285;-64
2023/10/12 01:27:54;;;;;;;3.20;1.60;;;;;;;10.32;100.00;102306.56;2053807;28;20278;-63
2023/10/12 01:28:55;;;;;;;2.93;1.70;;;;;;;10.28;100.00;102307.72;2053549;28;20884;-64
2023/10/12 01:30:11;;;;;;;3.17;1.40;;;;;;;10.27;100.00;102304.19;2053702;28;20194;-64
2023/10/12 01:31:11;;;;;;;3.90;1.67;;;;;;;10.24;100.00;102304.16;2052630;28;20838;-64
2023/10/12 01:33:13;;;;;;;3.33;1.60;;;;;;;10.24;100.00;102304.16;2053361;28;20237;-63
2023/10/12 01:34:14;;;;;;;5.37;1.90;;;;;;;10.25;100.00;102311.28;2053805;28;20179;-64
2023/10/12 01:35:16;;;;;;;2.17;1.33;;;;;;;10.24;100.00;102301.41;2052897;28;20418;-64
2023/10/12 01:36:17;;;;;;;2.70;1.30;;;;;;;10.02;100.00;102272.78;2053628;28;20254;-64
2023/10/12 01:37:22;;;;;;;3.20;1.47;;;;;;;10.21;100.00;102299.41;2053717;28;20524;-64
2023/10/12 01:38:22;;;;;;;3.33;1.43;;;;;;;10.23;100.00;102303.38;2053849;28;20199;-64
2023/10/12 01:39:28;;;;;;;3.67;1.53;;;;;;;10.23;100.00;102306.13;2053483;28;20481;-64
2023/10/12 01:41:47;;;;;;;3.30;1.60;;;;;;;10.25;100.00;102314.06;2053295;28;20433;-64
2023/10/12 01:43:48;;;;;;;5.03;1.80;;;;;;;10.24;100.00;102310.50;2053057;28;20443;-64
2023/10/12 01:44:51;;;;;;;2.40;1.67;;;;;;;10.23;100.00;102306.13;2052729;28;20259;-63
2023/10/12 01:46:02;;;;;;;2.10;1.53;;;;;;;10.23;100.00;102316.41;2044760;29;21014;-63
2023/10/12 01:47:04;;;;;;;7.93;1.93;;;;;;;10.22;100.00;102307.31;2046293;28;20491;-64
2023/10/12 01:48:38;;;;;;;2.83;1.80;;;;;;;10.23;100.00;102314.44;2053445;28;20461;-64
2023/10/12 01:49:34;;;;;;;6.80;1.80;;;;;;;10.23;100.00;102313.66;2049164;28;20469;-64
2023/10/12 01:50:38;;;;;;;4.30;1.77;;;;;;;10.21;100.00;102311.28;2048748;28;20434;-64
2023/10/12 01:51:45;;;;;;;2.93;1.77;;;;;;;10.20;100.00;102306.13;2050004;28;20811;-64
2023/10/12 01:52:47;;;;;;;4.50;1.97;;;;;;;10.21;100.00;102302.16;2055265;28;20448;-64
2023/10/12 01:53:49;;;;;;;1.77;1.33;;;;;;;10.21;100.00;102304.94;2055284;28;20429;-63
2023/10/12 01:54:50;;;;;;;3.83;1.80;;;;;;;9.48;100.00;102192.59;2055078;28;20419;-64
2023/10/12 01:55:52;;;;;;;4.30;1.70;;;;;;;10.20;100.00;102301.34;2055284;28;20422;-64
2023/10/12 01:56:53;;;;;;;3.97;2.00;;;;;;;10.20;100.00;102301.34;2055704;28;20636;-64
2023/10/12 01:57:53;;;;;;;2.60;1.53;;;;;;;10.19;100.00;102304.53;2054353;28;20518;-64
2023/10/12 01:58:54;;;;;;;3.47;1.80;;;;;;;10.12;100.00;102302.53;2054777;28;20712;-64
2023/10/12 01:59:54;;;;;;;3.40;1.57;;;;;;;10.12;100.00;102307.25;2055178;28;20217;-64
2023/10/12 02:01:04;;;;;;;3.00;1.67;;;;;;;10.11;100.00;102309.25;2054654;28;20296;-64
2023/10/12 02:02:13;;;;;;;2.67;1.60;;;;;;;10.10;100.00;102301.34;2054900;28;20286;-64
2023/10/12 02:04:14;;;;;;;2.57;1.40;;;;;;;10.02;100.00;102305.19;2055079;28;20892;-64
2023/10/12 02:05:23;;;;;;;3.70;1.97;;;;;;;10.02;100.00;102305.19;2054507;28;20234;-64
2023/10/12 02:06:28;;;;;;;8.37;1.50;;;;;;;10.01;100.00;102304.44;2054026;28;20182;-64
2023/10/12 02:07:28;;;;;;;4.97;1.60;;;;;;;9.88;100.00;102292.06;2054768;28;20794;-64
2023/10/12 02:08:39;;;;;;;2.90;1.37;;;;;;;9.96;100.00;102304.00;2054260;28;20430;-63
2023/10/12 02:09:41;;;;;;;3.93;1.93;;;;;;;9.94;100.00;102309.91;2054907;28;20434;-64
2023/10/12 02:10:54;;;;;;;3.03;1.43;;;;;;;9.96;100.00;102306.75;2054370;28;20431;-63
2023/10/12 02:11:55;;;;;;;5.33;2.13;;;;;;;9.97;100.00;102302.81;2046866;28;20488;-64
2023/10/12 02:12:55;;;;;;;2.77;1.50;;;;;;;9.95;100.00;102300.41;2055543;28;20518;-64
2023/10/12 02:13:57;;;;;;;6.03;1.80;;;;;;;9.93;100.00;102304.75;2054753;28;20201;-64
2023/10/12 02:14:57;;;;;;;2.40;1.40;;;;;;;9.89;100.00;102301.19;2054405;28;20996;-64
2023/10/12 02:16:00;;;;;;;2.40;1.60;;;;;;;9.80;100.00;102295.19;2054566;28;20460;-64
2023/10/12 02:17:02;;;;;;;3.17;1.53;;;;;;;9.87;100.00;102303.53;2054753;28;20657;-64
2023/10/12 02:18:10;;;;;;;4.67;1.97;;;;;;;9.88;100.00;102307.88;2059084;28;20967;-64
2023/10/12 02:19:19;;;;;;;3.17;1.43;;;;;;;9.63;100.00;102268.22;2054394;28;20445;-64
2023/10/12 02:20:19;;;;;;;2.23;1.53;;;;;;;9.87;100.00;102306.31;2056533;28;20519;-64
2023/10/12 02:21:21;;;;;;;3.13;1.47;;;;;;;9.81;100.00;102303.13;2059072;28;20432;-64
2023/10/12 02:22:26;;;;;;;3.77;1.20;;;;;;;9.75;100.00;102303.88;2055005;28;20581;-64
2023/10/12 02:23:38;;;;;;;2.37;1.30;;;;;;;9.71;100.00;102292.78;2054575;28;20927;-63
2023/10/12 02:24:42;;;;;;;2.60;1.53;;;;;;;9.74;100.00;102297.53;2054069;28;20853;-64
2023/10/12 02:25:50;;;;;;;4.43;1.37;;;;;;;9.76;100.00;102299.91;2053762;28;20457;-63
2023/10/12 02:27:54;;;;;;;2.93;1.50;;;;;;;9.10;100.00;102195.91;2055416;28;20422;-64
2023/10/12 02:28:58;;;;;;;3.50;1.43;;;;;;;9.43;100.00;102256.59;2054084;28;20743;-63
2023/10/12 02:29:59;;;;;;;6.43;1.97;;;;;;;9.73;100.00;102303.47;2054907;28;20451;-63
2023/10/12 02:31:02;;;;;;;2.73;1.63;;;;;;;9.70;100.00;102299.50;2054186;28;20442;-64
2023/10/12 02:32:17;;;;;;;3.60;1.63;;;;;;;9.51;100.00;102266.56;2054449;28;20198;-63
2023/10/12 02:33:23;;;;;;;4.03;1.70;;;;;;;9.70;100.00;102304.22;2052944;28;20488;-63
2023/10/12 02:34:26;;;;;;;9.93;1.67;;;;;;;9.67;100.00;102291.97;2054833;28;20457;-64
2023/10/12 02:35:36;;;;;;;8.10;2.03;;;;;;;9.65;100.00;102293.53;2054121;28;20456;-64
2023/10/12 02:36:37;;;;;;;4.33;1.73;;;;;;;9.65;100.00;102294.31;2054599;28;20573;-64
2023/10/12 02:37:37;;;;;;;3.83;1.70;;;;;;;9.61;100.00;102293.50;2054276;28;20590;-64
2023/10/12 02:38:39;;;;;;;3.67;2.00;;;;;;;9.58;100.00;102296.25;2054801;28;20247;-64
2023/10/12 02:39:41;;;;;;;2.40;1.50;;;;;;;9.55;100.00;102294.25;2054234;28;20659;-64
2023/10/12 02:40:44;;;;;;;4.67;1.50;;;;;;;9.56;100.00;102293.88;2054385;28;20425;-64
2023/10/12 02:42:03;;;;;;;4.33;2.27;;;;;;;9.56;100.00;102293.06;2053133;28;20420;-64
2023/10/12 02:43:06;;;;;;;2.97;1.77;;;;;;;9.58;100.00;102297.03;2058895;28;20498;-64
2023/10/12 02:44:14;;;;;;;5.90;2.27;;;;;;;9.50;100.00;102289.06;2054002;28;20465;-63
2023/10/12 02:46:22;;;;;;;4.77;1.97;;;;;;;9.33;100.00;102300.81;2055271;28;20428;-64
2023/10/12 02:47:33;;;;;;;3.87;1.90;;;;;;;9.31;100.00;102309.50;2048198;28;20623;-64
2023/10/12 02:48:36;;;;;;;3.47;2.00;;;;;;;9.32;100.00;102304.75;2055249;28;20818;-64
2023/10/12 02:49:39;;;;;;;2.77;1.70;;;;;;;9.31;100.00;102301.19;2046765;28;20429;-64
2023/10/12 02:50:57;;;;;;;5.17;1.93;;;;;;;9.35;100.00;102304.78;2053786;28;20453;-64
2023/10/12 02:52:02;;;;;;;5.17;1.80;;;;;;;9.29;100.00;102305.53;2054511;28;20423;-63
2023/10/12 02:53:08;;;;;;;3.80;1.80;;;;;;;9.29;100.00;102306.31;2055069;28;20451;-64
2023/10/12 02:54:09;;;;;;;3.43;1.73;;;;;;;9.30;100.00;102302.38;2054542;28;20440;-64
2023/10/12 02:55:25;;;;;;;3.40;1.80;;;;;;;9.30;100.00;102313.44;2055537;28;20777;-64
2023/10/12 02:56:26;;;;;;;8.47;2.13;;;;;;;9.25;100.00;102305.50;2054698;28;20200;-63
2023/10/12 02:57:30;;;;;;;7.70;1.77;;;;;;;9.23;100.00;102305.06;2053659;28;20599;-64
2023/10/12 02:58:32;;;;;;;3.40;1.50;;;;;;;9.23;100.00;102307.06;2054145;28;20198;-63
2023/10/12 02:59:38;;;;;;;5.73;1.93;;;;;;;9.22;100.00;102306.25;2053011;28;20465;-64
2023/10/12 03:01:42;;;;;;;3.37;1.87;;;;;;;9.17;100.00;102305.81;2048976;28;20446;-64
2023/10/12 03:02:47;;;;;;;2.67;1.93;;;;;;;9.12;100.00;102293.13;2061342;28;21032;-64
2023/10/12 03:03:48;;;;;;;3.83;1.93;;;;;;;8.78;100.00;102258.47;2062146;28;20722;-63
2023/10/12 03:04:48;;;;;;;4.03;1.90;;;;;;;9.15;100.00;102302.63;2054388;28;20883;-63
2023/10/12 03:05:52;;;;;;;3.40;1.77;;;;;;;8.67;100.00;102235.44;2061446;28;20197;-63
2023/10/12 03:07:10;;;;;;;6.70;2.00;;;;;;;9.10;100.00;102305.75;2062440;28;20187;-63
2023/10/12 03:08:15;;;;;;;3.43;2.00;;;;;;;9.09;100.00;102302.19;2052700;28;20502;-63
2023/10/12 03:09:17;;;;;;;4.33;2.00;;;;;;;9.11;100.00;102299.03;2047157;28;20920;-63
2023/10/12 03:10:25;;;;;;;4.63;1.80;;;;;;;9.10;100.00;102301.00;2046741;29;20984;-64
2023/10/12 03:11:27;;;;;;;3.23;1.60;;;;;;;8.70;100.00;102236.66;2046369;29;20413;-63
2023/10/12 03:12:34;;;;;;;3.07;2.23;;;;;;;9.09;100.00;102301.38;2052476;28;20481;-63
2023/10/12 03:13:40;;;;;;;3.20;1.90;;;;;;;9.08;100.00;102294.28;2054296;28;20954;-63
2023/10/12 03:14:41;;;;;;;5.03;1.77;;;;;;;9.12;100.00;102298.66;2053756;28;20956;-64
2023/10/12 03:15:42;;;;;;;2.83;1.67;;;;;;;9.15;100.00;102295.13;2053983;28;20859;-64
2023/10/12 03:16:43;;;;;;;3.88;1.65;;;;;;;9.16;100.00;102302.25;2050110;28;20290;-63
2023/10/12 03:17:57;;;;;;;3.93;1.87;;;;;;;9.16;100.00;102302.25;2049746;28;20216;-63
2023/10/12 03:19:00;;;;;;;4.67;1.67;;;;;;;9.19;100.00;102297.94;2054316;28;20964;-64
2023/10/12 03:20:17;;;;;;;5.13;2.03;;;;;;;9.20;100.00;102302.28;2055058;28;20574;-64
2023/10/12 03:21:17;;;;;;;3.70;2.10;;;;;;;9.20;100.00;102305.84;2053532;28;20803;-63
2023/10/12 03:22:34;;;;;;;2.43;1.60;;;;;;;9.22;100.00;102297.94;2054461;28;20217;-63
2023/10/12 03:23:34;;;;;;;3.33;2.00;;;;;;;9.25;100.00;102297.19;2054040;28;20207;-63
2023/10/12 03:24:43;;;;;;;3.13;1.63;;;;;;;9.24;100.00;102292.84;2054035;28;20460;-63
2023/10/12 03:25:51;;;;;;;3.20;1.70;;;;;;;9.24;100.00;102300.34;2054782;28;20689;-64
2023/10/12 03:27:11;;;;;;;3.40;1.87;;;;;;;9.21;100.00;102299.13;2054272;28;20560;-63
2023/10/12 03:28:12;;;;;;;7.27;2.50;;;;;;;8.93;100.00;102284.25;2054985;28;20445;-63
2023/10/12 03:30:17;;;;;;;2.53;1.73;;;;;;;9.06;100.00;102299.38;2048993;28;20529;-64
2023/10/12 03:32:23;;;;;;;3.70;1.60;;;;;;;9.02;100.00;102296.59;2054283;28;20521;-63
2023/10/12 03:33:34;;;;;;;2.33;1.30;;;;;;;9.02;100.00;102293.03;2054116;28;20478;-63
2023/10/12 03:35:44;;;;;;;4.87;1.63;;;;;;;9.01;100.00;102286.72;2054967;28;20568;-63
2023/10/12 03:36:48;;;;;;;2.63;1.73;;;;;;;9.03;100.00;102289.88;2047229;29;20160;-64
2023/10/12 03:37:52;;;;;;;3.90;1.60;;;;;;;9.04;100.00;102288.72;2054399;28;20540;-63
2023/10/12 03:42:53;;;;;;;3.57;1.90;;;;;;;9.05;100.00;102289.50;2053704;28;20935;-63
2023/10/12 03:44:02;;;;;;;2.77;1.60;;;;;;;9.01;100.00;102286.72;2054180;28;20433;-63
2023/10/12 03:45:24;;;;;;;4.20;1.53;;;;;;;9.06;100.00;102291.09;2053469;28;20797;-64
2023/10/12 03:46:28;;;;;;;3.70;1.80;;;;;;;9.05;100.00;102295.84;2054306;28;20472;-63
2023/10/12 03:47:36;;;;;;;4.57;1.70;;;;;;;9.01;100.00;102286.72;2054162;28;20450;-63
2023/10/12 03:50:00;;;;;;;3.53;1.80;;;;;;;8.89;100.00;102295.28;2054778;28;20453;-64
2023/10/12 03:51:12;;;;;;;4.30;1.90;;;;;;;8.90;100.00;102293.31;2053657;28;20449;-63
2023/10/12 03:52:13;;;;;;;3.53;1.60;;;;;;;8.89;100.00;102287.00;2054687;28;20449;-65
2023/10/12 03:53:20;;;;;;;2.37;1.47;;;;;;;8.91;100.00;102300.44;2057252;28;20442;-69
2023/10/12 03:54:26;;;;;;;3.40;1.63;;;;;;;8.79;100.00;102284.13;2057633;28;20427;-63
2023/10/12 03:55:32;;;;;;;2.70;1.60;;;;;;;8.80;100.00;102292.03;2052803;28;20437;-65
2023/10/12 03:56:39;;;;;;;2.27;1.30;;;;;;;8.83;100.00;102293.25;2054879;28;20410;-64
2023/10/12 03:57:45;;;;;;;2.03;1.30;;;;;;;8.98;100.00;102300.50;2054986;28;20469;-67
2023/10/12 03:58:47;;;;;;;3.57;1.50;;;;;;;9.14;100.00;102296.31;2062197;28;20425;-65
2023/10/12 04:00:14;;;;;;;4.97;2.23;;;;;;;9.30;100.00;102299.59;2055517;28;20454;-65
2023/10/12 04:02:21;;;;;;;2.77;1.67;;;;;;;10.76;100.00;102312.63;2052994;28;20908;-67
2023/10/12 04:03:34;;;;;;;2.97;1.83;;;;;;;10.89;100.00;102319.41;2055631;28;20851;-66
2023/10/12 04:04:35;;;;;;;5.73;2.20;;;;;;;10.37;100.00;102288.75;2054698;28;20170;-67
2023/10/12 04:05:36;;;;;;;6.90;2.17;;;;;;;10.34;100.00;102314.47;2054138;28;20423;-68
2023/10/12 04:09:14;;;;;;;5.87;1.83;;;;;;;9.88;100.00;102305.13;2049178;29;20897;-70
2023/10/12 04:10:41;;;;;;;3.77;1.73;;;;;;;9.71;100.00;102290.00;2048422;29;20454;-70
2023/10/12 04:11:49;;;;;;;4.07;1.87;;;;;;;9.60;100.00;102289.16;2056527;28;20494;-70
2023/10/12 04:12:54;;;;;;;2.90;1.87;;;;;;;9.43;100.00;102269.66;2054854;28;20431;-69
2023/10/12 04:13:56;;;;;;;2.77;1.57;;;;;;;9.52;100.00;102300.53;2061505;28;20432;-69
2023/10/12 04:14:56;;;;;;;2.80;1.60;;;;;;;9.47;100.00;102298.13;2057388;28;20418;-70
2023/10/12 04:17:15;;;;;;;3.57;1.70;;;;;;;9.42;100.00;102295.72;2056783;28;20579;-69
2023/10/12 04:18:16;;;;;;;3.97;1.50;;;;;;;9.24;100.00;102276.25;2057030;28;20853;-70
2023/10/12 04:19:22;;;;;;;3.90;1.60;;;;;;;9.37;100.00;102296.09;2056525;28;20445;-70
2023/10/12 04:20:23;;;;;;;2.80;1.47;;;;;;;9.36;100.00;102300.03;2056999;28;20161;-70
2023/10/12 04:21:28;;;;;;;5.13;2.27;;;;;;;9.36;100.00;102297.25;2048898;29;20968;-69
2023/10/12 04:22:40;;;;;;;2.67;1.40;;;;;;;9.36;100.00;102305.56;2049577;28;20265;-69
2023/10/12 04:25:12;;;;;;;2.47;1.50;;;;;;;9.34;100.00;102296.88;2056707;28;20405;-69
2023/10/12 04:28:23;;;;;;;5.17;2.03;;;;;;;9.33;100.00;102285.00;2058227;28;20190;-69
2023/10/12 04:29:30;;;;;;;2.53;1.60;;;;;;;9.23;100.00;102268.31;2054986;28;20539;-69
2023/10/12 04:32:52;;;;;;;4.47;1.80;;;;;;;9.35;100.00;102290.16;2062318;28;20627;-74
2023/10/12 04:35:20;;;;;;;4.60;1.73;;;;;;;9.26;100.00;102268.34;2047842;28;20487;-70
2023/10/12 04:37:27;;;;;;;2.67;1.63;;;;;;;9.23;100.00;102273.84;2048910;28;20471;-71
2023/10/12 04:38:46;;;;;;;9.27;1.93;;;;;;;9.38;100.00;102289.38;2051436;28;20429;-73
2023/10/12 04:39:49;;;;;;;3.57;2.07;;;;;;;9.35;100.00;102287.38;2054824;28;20918;-71
2023/10/12 04:42:33;;;;;;;6.13;3.40;;;;;;;9.42;100.00;102292.94;2055088;28;20429;-72
2023/10/12 04:43:33;;;;;;;6.53;3.83;;;;;;;9.44;100.00;102299.69;2048813;28;20980;-70
2023/10/12 04:47:10;;;;;;;6.13;4.00;;;;;;;9.50;100.00;102283.53;2057394;28;20594;-70
2023/10/12 04:48:18;;;;;;;5.53;3.40;;;;;;;9.29;100.00;102255.72;2053218;28;20182;-71
2023/10/12 04:50:42;;;;;;;9.47;3.13;;;;;;;9.45;100.00;102272.81;2056181;28;20434;-70
2023/10/12 04:51:40;;;;;;;5.17;3.30;;;;;;;9.57;100.00;102289.91;2050653;28;20722;-70
2023/10/12 04:53:06;;;;;;;8.57;4.17;;;;;;;9.58;100.00;102285.97;2049205;29;20430;-70
2023/10/12 04:54:36;;;;;;;6.83;3.97;;;;;;;9.63;100.00;102290.34;2053645;28;20945;-70
2023/10/12 04:55:28;;;;;;;9.57;3.47;;;;;;;9.57;100.00;102280.81;2051877;28;20485;-70
2023/10/12 04:56:36;;;;;;;7.70;3.30;;;;;;;9.65;100.00;102297.09;2048270;28;20442;-70
2023/10/12 04:57:39;;;;;;;7.07;3.93;;;;;;;9.65;100.00;102293.53;2056189;28;20401;-70
2023/10/12 04:58:56;;;;;;;13.17;4.23;;;;;;;9.68;100.00;102299.06;2049237;29;20432;-70
2023/10/12 05:01:18;;;;;;;12.83;5.13;;;;;;;9.71;100.00;102297.50;2051239;28;20430;-71
2023/10/12 05:02:28;;;;;;;5.73;3.50;;;;;;;9.73;100.00;102297.94;2048529;29;20425;-71
2023/10/12 05:03:39;;;;;;;6.13;3.33;;;;;;;9.68;100.00;102290.00;2046542;28;20432;-72
2023/10/12 05:05:57;;;;;;;12.40;3.60;;;;;;;9.77;100.00;102305.06;2034551;28;20935;-72
2023/10/12 05:07:27;;;;;;;5.57;2.73;;;;;;;9.68;100.00;102281.69;2032069;29;20688;-72
2023/10/12 05:08:31;;;;;;;7.40;3.30;;;;;;;9.80;100.00;102303.50;2036955;28;20460;-72
2023/10/12 05:09:32;;;;;;;11.37;4.97;;;;;;;9.60;100.00;102263.44;2034499;29;20513;-72
2023/10/12 05:11:36;;;;;;;9.03;3.03;;;;;;;9.85;100.00;102305.91;2036982;28;20193;-72
2023/10/12 05:12:37;;;;;;;9.17;3.70;;;;;;;9.81;100.00;102300.34;2044372;28;20464;-72
2023/10/12 05:13:43;;;;;;;10.23;3.03;;;;;;;9.77;100.00;102293.19;2033605;29;20653;-73
2023/10/12 05:14:44;;;;;;;4.13;2.33;;;;;;;9.76;100.00;102294.38;2026028;29;20207;-74
2023/10/12 05:15:54;;;;;;;8.40;2.97;;;;;;;9.82;100.00;102290.06;2036715;29;20448;-74
2023/10/12 05:16:55;;;;;;;7.67;3.03;;;;;;;9.84;100.00;102287.72;2042805;28;20960;-75
2023/10/12 05:17:55;;;;;;;5.87;3.03;;;;;;;9.82;100.00;102295.59;2037339;29;21145;-73
2023/10/12 05:18:56;;;;;;;9.07;3.00;;;;;;;9.82;100.00;102301.94;2041631;29;20269;-74
2023/10/12 05:19:56;;;;;;;6.00;2.70;;;;;;;9.81;100.00;102288.47;2035962;29;20257;-76
2023/10/12 05:20:58;;;;;;;5.33;2.40;;;;;;;9.87;100.00;102298.81;2044598;28;20202;-75
2023/10/12 05:21:59;;;;;;;5.30;2.37;;;;;;;9.70;100.00;102263.53;2043687;28;20327;-79
2023/10/12 05:22:59;;;;;;;5.57;2.53;;;;;;;9.91;100.00;102299.63;2046012;28;20465;-73
2023/10/12 05:24:00;;;;;;;3.53;2.03;;;;;;;9.91;100.00;102305.16;2047802;28;20184;-75
2023/10/12 05:25:01;;;;;;;4.27;2.20;;;;;;;9.79;100.00;102279.78;2049564;28;20656;-74
2023/10/12 05:27:23;;;;;;;6.23;2.97;;;;;;;9.93;100.00;102300.03;2043922;28;20455;-75
2023/10/12 05:28:31;;;;;;;5.00;3.03;;;;;;;9.97;100.00;102297.25;2037996;28;20466;-73
2023/10/12 05:29:45;;;;;;;6.47;3.60;;;;;;;10.03;100.00;102312.31;2030978;29;20841;-73
2023/10/12 05:31:28;;;;;;;4.80;2.70;;;;;;;10.06;100.00;102317.13;2029978;29;20469;-73
2023/10/12 05:32:19;;;;;;;5.93;3.40;;;;;;;9.98;100.00;102304.38;2036581;28;20961;-73
2023/10/12 05:34:32;;;;;;;5.87;3.23;;;;;;;10.08;100.00;102318.34;2048264;28;20856;-78
2023/10/12 05:34:52;;;;;;;5.57;2.97;;;;;;;9.82;100.00;102265.94;2039057;28;20436;-73
2023/10/12 05:35:57;;;;;;;5.93;2.43;;;;;;;10.11;100.00;102314.81;2033807;28;20439;-75
2023/10/12 05:37:17;;;;;;;5.67;2.23;;;;;;;10.14;100.00;102316.78;2049828;28;20455;-75
2023/10/12 05:38:18;;;;;;;5.50;2.60;;;;;;;10.09;100.00;102313.59;2054314;28;20418;-76
2023/10/12 05:39:20;;;;;;;4.87;2.40;;;;;;;10.18;100.00;102322.31;2051323;28;20453;-76
2023/10/12 05:40:21;;;;;;;6.07;2.97;;;;;;;10.20;100.00;102323.53;2054389;28;20198;-74
2023/10/12 05:41:43;;;;;;;10.60;2.40;;;;;;;10.25;100.00;102319.59;2055316;28;20491;-74
2023/10/12 05:42:46;;;;;;;7.97;2.00;;;;;;;10.28;100.00;102327.13;2049039;28;20228;-74
2023/10/12 05:43:46;;;;;;;4.63;2.10;;;;;;;10.29;100.00;102320.38;2033142;28;21382;-73
2023/10/12 05:44:48;;;;;;;4.57;2.00;;;;;;;10.30;100.00;102320.00;2047565;28;20440;-74
2023/10/12 05:45:49;;;;;;;5.17;2.80;;;;;;;10.33;100.00;102324.78;2052874;28;20194;-75
2023/10/12 05:46:58;;;;;;;7.90;2.67;;;;;;;10.37;100.00;102324.78;2052355;28;20437;-76